createdAt,value
2023-01-09T00:00:57.137Z,3.90
2023-01-09T00:03:23.822Z,2.87
2023-01-09T00:05:50.602Z,3.10
2023-01-09T00:08:17.324Z,3.33
2023-01-09T00:10:44.219Z,3.70
2023-01-09T00:13:13.942Z,3.37
2023-01-09T00:15:41.518Z,3.47
2023-01-09T00:18:08.326Z,3.37
2023-01-09T00:20:36.190Z,3.93
2023-01-09T00:23:03.099Z,3.60
2023-01-09T00:25:29.712Z,3.70
2023-01-09T00:27:56.487Z,3.87
2023-01-09T00:30:23.182Z,3.73
2023-01-09T00:32:49.854Z,3.67
2023-01-09T00:35:18.270Z,3.80
2023-01-09T00:37:45.132Z,3.20
2023-01-09T00:40:14.397Z,3.60
2023-01-09T00:42:42.463Z,3.63
2023-01-09T00:45:11.889Z,4.17
2023-01-09T00:47:50.265Z,3.50
2023-01-09T00:50:23.680Z,3.30
2023-01-09T00:52:51.502Z,3.93
2023-01-09T00:55:18.251Z,3.63
2023-01-09T00:57:45.196Z,3.40
2023-01-09T01:00:12.465Z,4.13
2023-01-09T01:02:39.168Z,4.03
2023-01-09T01:05:25.238Z,3.57
2023-01-09T01:07:51.862Z,3.53
2023-01-09T01:10:23.057Z,3.87
2023-01-09T01:12:50.571Z,3.73
2023-01-09T01:15:18.287Z,4.00
2023-01-09T01:17:45.335Z,3.30
2023-01-09T01:20:14.596Z,3.70
2023-01-09T01:22:44.413Z,3.93
2023-01-09T01:25:12.818Z,3.00
2023-01-09T01:27:40.315Z,3.93
2023-01-09T01:30:08.643Z,4.30
2023-01-09T01:32:35.275Z,3.73
2023-01-09T01:35:02.044Z,3.33
2023-01-09T01:37:28.713Z,3.37
2023-01-09T01:39:55.400Z,3.50
2023-01-09T01:42:23.841Z,3.73
2023-01-09T01:45:10.396Z,3.87
2023-01-09T01:47:41.712Z,3.57
2023-01-09T01:50:13.978Z,4.00
2023-01-09T01:52:42.728Z,3.70
2023-01-09T01:55:09.803Z,4.20
2023-01-09T01:57:38.021Z,3.40
2023-01-09T02:00:07.505Z,3.60
2023-01-09T02:02:34.668Z,3.30
2023-01-09T02:05:04.270Z,3.33
2023-01-09T02:07:31.053Z,3.20
2023-01-09T02:09:57.911Z,3.43
2023-01-09T02:12:26.909Z,3.00
2023-01-09T02:15:06.330Z,2.80
2023-01-09T02:17:38.897Z,2.50
2023-01-09T02:20:38.920Z,2.17
2023-01-09T02:23:11.554Z,1.60
2023-01-09T02:26:06.315Z,1.77
2023-01-09T02:28:59.079Z,1.30
2023-01-09T02:31:44.297Z,1.33
2023-01-09T02:34:28.427Z,1.20
2023-01-09T02:37:28.296Z,1.40
2023-01-09T02:40:09.815Z,1.10
2023-01-09T02:42:38.751Z,1.03
2023-01-09T02:45:08.647Z,1.00
2023-01-09T02:47:38.325Z,0.97
2023-01-09T02:50:09.147Z,1.00
2023-01-09T02:52:57.681Z,0.83
2023-01-09T02:55:53.875Z,0.87
2023-01-09T02:58:45.079Z,0.80
2023-01-09T03:01:28.609Z,0.90
2023-01-09T03:04:22.838Z,0.90
2023-01-09T03:07:04.974Z,0.80
2023-01-09T03:09:34.444Z,0.90
2023-01-09T03:12:20.337Z,1.00
2023-01-09T03:14:49.749Z,0.90
2023-01-09T03:17:24.742Z,1.00
2023-01-09T03:19:53.922Z,1.20
2023-01-09T03:22:20.518Z,1.00
2023-01-09T03:24:47.196Z,0.80
2023-01-09T03:27:14.262Z,1.00
2023-01-09T03:29:40.835Z,0.80
2023-01-09T03:32:07.491Z,1.00
2023-01-09T03:34:34.130Z,1.17
2023-01-09T03:37:02.919Z,0.90
2023-01-09T03:39:29.967Z,1.10
2023-01-09T03:41:56.695Z,1.10
2023-01-09T03:44:23.371Z,1.10
2023-01-09T03:46:50.363Z,1.10
2023-01-09T03:49:22.193Z,1.00
2023-01-09T03:51:48.871Z,0.90
2023-01-09T03:54:15.581Z,1.00
2023-01-09T03:56:42.234Z,1.20
2023-01-09T03:59:08.830Z,1.00
2023-01-09T04:01:35.585Z,1.30
2023-01-09T04:04:02.274Z,1.10
2023-01-09T04:06:29.834Z,1.00
2023-01-09T04:08:57.010Z,0.90
2023-01-09T04:11:23.839Z,0.97
2023-01-09T04:13:50.541Z,1.07
2023-01-09T04:16:17.191Z,1.20
2023-01-09T04:18:43.845Z,1.20
2023-01-09T04:21:10.516Z,1.30
2023-01-09T04:23:37.426Z,1.13
2023-01-09T04:26:04.334Z,1.20
2023-01-09T04:28:31.306Z,1.60
2023-01-09T04:30:58.903Z,1.50
2023-01-09T04:33:27.675Z,1.70
2023-01-09T04:35:54.783Z,1.63
2023-01-09T04:38:21.506Z,1.40
2023-01-09T04:40:49.759Z,1.73
2023-01-09T04:43:16.850Z,2.20
2023-01-09T04:45:43.863Z,2.70
2023-01-09T04:48:10.841Z,2.30
2023-01-09T04:50:37.630Z,2.20
2023-01-09T04:53:04.348Z,2.73
2023-01-09T04:55:31.011Z,3.20
2023-01-09T04:57:58.012Z,3.60
2023-01-09T05:00:27.964Z,3.30
2023-01-09T05:02:54.758Z,3.43
2023-01-09T05:05:21.431Z,3.57
2023-01-09T05:07:48.120Z,3.50
2023-01-09T05:10:15.033Z,3.77
2023-01-09T05:12:52.748Z,3.23
2023-01-09T05:15:22.870Z,3.67
2023-01-09T05:17:50.222Z,3.50
2023-01-09T05:20:17.069Z,4.10
2023-01-09T05:22:43.635Z,4.17
2023-01-09T05:25:10.419Z,4.20
2023-01-09T05:27:38.533Z,4.13
2023-01-09T05:30:10.358Z,4.57
2023-01-09T05:32:37.028Z,4.87
2023-01-09T05:35:05.109Z,5.60
2023-01-09T05:37:31.877Z,5.60
2023-01-09T05:39:58.495Z,5.60
2023-01-09T05:42:25.182Z,5.50
2023-01-09T05:44:54.199Z,6.33
2023-01-09T05:47:20.960Z,6.50
2023-01-09T05:49:47.720Z,6.50
2023-01-09T05:52:14.420Z,6.80
2023-01-09T05:54:41.065Z,7.17
2023-01-09T05:57:15.185Z,7.13
2023-01-09T05:59:47.150Z,6.63
2023-01-09T06:02:14.159Z,7.03
2023-01-09T06:04:45.544Z,6.53
2023-01-09T06:07:16.555Z,7.67
2023-01-09T06:09:45.293Z,6.17
2023-01-09T06:12:12.040Z,6.57
2023-01-09T06:14:38.676Z,7.40
2023-01-09T06:17:05.404Z,6.60
2023-01-09T06:19:32.063Z,6.87
2023-01-09T06:21:58.659Z,6.33
2023-01-09T06:24:25.373Z,6.50
2023-01-09T06:26:52.097Z,6.60
2023-01-09T06:29:18.921Z,6.40
2023-01-09T06:31:45.521Z,7.10
2023-01-09T06:34:12.964Z,6.33
2023-01-09T06:36:39.576Z,6.17
2023-01-09T06:39:06.132Z,6.33
2023-01-09T06:41:32.765Z,6.80
2023-01-09T06:43:59.338Z,7.90
2023-01-09T06:46:26.047Z,7.53
2023-01-09T06:48:52.662Z,7.83
2023-01-09T06:51:19.367Z,8.40
2023-01-09T06:53:46.047Z,8.00
2023-01-09T06:56:12.700Z,8.10
2023-01-09T06:58:39.377Z,7.97
2023-01-09T07:01:06.039Z,7.97
2023-01-09T07:03:33.840Z,9.43
2023-01-09T07:06:00.579Z,8.17
2023-01-09T07:08:27.145Z,9.47
2023-01-09T07:10:53.783Z,9.83
2023-01-09T07:13:20.359Z,9.03
2023-01-09T07:15:46.965Z,9.53
2023-01-09T07:18:13.602Z,10.97
2023-01-09T07:20:41.518Z,9.93
2023-01-09T07:23:13.636Z,11.00
2023-01-09T07:25:42.164Z,10.80
2023-01-09T07:28:08.869Z,10.40
2023-01-09T07:30:35.408Z,11.33
2023-01-09T07:33:03.914Z,10.60
2023-01-09T07:35:30.838Z,11.07
2023-01-09T07:37:57.564Z,10.37
2023-01-09T07:40:24.516Z,10.53
2023-01-09T07:42:53.460Z,9.77
2023-01-09T07:45:20.175Z,9.77
2023-01-09T07:47:47.286Z,10.30
2023-01-09T07:50:13.873Z,9.20
2023-01-09T07:52:40.476Z,9.77
2023-01-09T07:55:07.778Z,8.63
2023-01-09T07:57:34.406Z,9.07
2023-01-09T08:00:03.419Z,8.03
2023-01-09T08:02:38.072Z,8.67
2023-01-09T08:05:05.040Z,7.47
2023-01-09T08:07:31.757Z,7.20
2023-01-09T08:09:58.382Z,6.17
2023-01-09T08:12:24.996Z,6.37
2023-01-09T08:14:51.598Z,5.90
2023-01-09T08:17:18.218Z,5.20
2023-01-09T08:19:44.857Z,5.50
2023-01-09T08:22:11.454Z,5.50
2023-01-09T08:24:38.086Z,5.10
2023-01-09T08:27:04.666Z,5.07
2023-01-09T08:29:31.299Z,4.27
2023-01-09T08:31:57.969Z,4.40
2023-01-09T08:34:24.673Z,3.93
2023-01-09T08:36:53.206Z,4.00
2023-01-09T08:39:20.231Z,3.70
2023-01-09T08:42:05.635Z,3.90
2023-01-09T08:44:50.991Z,4.00
2023-01-09T08:47:21.066Z,3.57
2023-01-09T08:49:47.847Z,3.90
2023-01-09T08:52:14.561Z,4.20
2023-01-09T08:54:41.250Z,3.60
2023-01-09T08:57:08.197Z,3.60
2023-01-09T08:59:34.891Z,4.17
2023-01-09T09:02:01.595Z,4.03
2023-01-09T09:04:28.244Z,4.10
2023-01-09T09:06:54.852Z,3.23
2023-01-09T09:09:21.409Z,3.80
2023-01-09T09:11:48.134Z,3.73
2023-01-09T09:14:33.372Z,3.37
2023-01-09T09:17:00.115Z,3.20
2023-01-09T09:19:26.782Z,3.77
2023-01-09T09:21:53.391Z,3.40
2023-01-09T09:24:20.092Z,3.40
2023-01-09T09:26:46.776Z,3.40
2023-01-09T09:29:13.526Z,3.07
2023-01-09T09:31:40.211Z,3.00
2023-01-09T09:34:07.262Z,3.10
2023-01-09T09:36:34.020Z,3.07
2023-01-09T09:39:02.541Z,2.87
2023-01-09T09:41:53.831Z,3.03
2023-01-09T09:44:53.401Z,2.97
2023-01-09T09:47:29.771Z,2.97
2023-01-09T09:50:15.919Z,2.90
2023-01-09T09:52:45.558Z,2.43
2023-01-09T09:55:18.666Z,2.27
2023-01-09T09:57:46.960Z,2.30
2023-01-09T10:00:19.137Z,2.33
2023-01-09T10:02:51.746Z,2.27
2023-01-09T10:05:29.889Z,2.10
2023-01-09T10:08:11.586Z,2.17
2023-01-09T10:10:51.438Z,2.80
2023-01-09T10:13:38.086Z,2.00
2023-01-09T10:16:05.320Z,2.20
2023-01-09T10:19:02.893Z,1.83
2023-01-09T10:21:38.709Z,1.90
2023-01-09T10:24:33.322Z,2.23
2023-01-09T10:27:17.858Z,2.00
2023-01-09T10:29:53.960Z,1.70
2023-01-09T10:32:39.320Z,1.60
2023-01-09T10:35:21.783Z,1.67
2023-01-09T10:37:53.214Z,1.67
2023-01-09T10:40:23.296Z,1.93
2023-01-09T10:43:11.732Z,1.63
2023-01-09T10:45:50.988Z,2.10
2023-01-09T10:48:30.005Z,1.50
2023-01-09T10:50:57.504Z,1.67
2023-01-09T10:53:29.063Z,1.60
2023-01-09T10:56:19.191Z,1.70
2023-01-09T10:58:46.275Z,1.40
2023-01-09T11:01:13.222Z,1.93
2023-01-09T11:03:40.187Z,1.70
2023-01-09T11:06:36.935Z,1.67
2023-01-09T11:09:05.270Z,1.60
2023-01-09T11:11:38.252Z,1.60
2023-01-09T11:14:17.548Z,1.57
2023-01-09T11:16:57.731Z,1.40
2023-01-09T11:19:25.763Z,1.90
2023-01-09T11:22:17.910Z,1.80
2023-01-09T11:24:45.501Z,1.53
2023-01-09T11:27:24.277Z,2.00
2023-01-09T11:30:05.751Z,2.33
2023-01-09T11:32:33.446Z,1.60
2023-01-09T11:35:00.265Z,1.80
2023-01-09T11:37:30.757Z,1.67
2023-01-09T11:39:59.135Z,1.47
2023-01-09T11:42:46.959Z,1.60
2023-01-09T11:45:21.659Z,1.73
2023-01-09T11:47:48.362Z,1.60
2023-01-09T11:50:31.189Z,1.90
2023-01-09T11:53:12.654Z,1.63
2023-01-09T11:55:42.713Z,1.63
2023-01-09T11:58:21.725Z,1.43
2023-01-09T12:00:55.365Z,1.90
2023-01-09T12:03:37.197Z,1.90
2023-01-09T12:06:17.702Z,1.60
2023-01-09T12:09:03.671Z,1.73
2023-01-09T12:11:34.853Z,1.80
2023-01-09T12:14:20.214Z,2.07
2023-01-09T12:17:15.905Z,1.60
2023-01-09T12:20:20.347Z,1.80
2023-01-09T12:23:00.477Z,1.93
2023-01-09T12:25:37.327Z,1.80
2023-01-09T12:28:22.279Z,2.13
2023-01-09T12:31:23.073Z,1.93
2023-01-09T12:34:08.360Z,2.00
2023-01-09T12:37:04.861Z,2.30
2023-01-09T12:39:45.181Z,2.30
2023-01-09T12:42:15.784Z,2.10
2023-01-09T12:45:19.763Z,2.13
2023-01-09T12:47:47.997Z,2.47
2023-01-09T12:50:14.572Z,2.40
2023-01-09T12:52:49.564Z,2.30
2023-01-09T12:55:19.583Z,3.50
2023-01-09T12:57:49.331Z,3.03
2023-01-09T13:00:21.549Z,2.70
2023-01-09T13:03:11.312Z,2.70
2023-01-09T13:05:57.579Z,5.97
2023-01-09T13:08:33.985Z,3.23
2023-01-09T13:11:50.375Z,2.77
2023-01-09T13:14:25.585Z,3.20
2023-01-09T13:16:53.335Z,2.60
2023-01-09T13:19:28.163Z,3.30
2023-01-09T13:21:56.785Z,2.60
2023-01-09T13:24:54.517Z,2.53
2023-01-09T13:27:23.075Z,3.90
2023-01-09T13:30:03.690Z,3.43
2023-01-09T13:32:30.281Z,3.30
2023-01-09T13:35:01.367Z,3.23
2023-01-09T13:37:31.059Z,3.20
2023-01-09T13:40:06.225Z,3.50
2023-01-09T13:42:35.995Z,3.00
2023-01-09T13:45:22.170Z,3.27
2023-01-09T13:48:08.475Z,4.03
2023-01-09T13:50:35.974Z,3.70
2023-01-09T13:53:18.170Z,3.30
2023-01-09T13:55:57.443Z,3.30
2023-01-09T13:58:37.852Z,3.20
2023-01-09T14:01:25.219Z,3.83
2023-01-09T14:04:14.921Z,3.10
2023-01-09T14:06:41.834Z,3.50
2023-01-09T14:09:26.990Z,3.83
2023-01-09T14:12:05.085Z,3.27
2023-01-09T14:14:33.308Z,3.33
2023-01-09T14:17:03.373Z,3.37
2023-01-09T14:19:34.255Z,3.00
2023-01-09T14:22:01.532Z,3.40
2023-01-09T14:24:31.808Z,3.67
2023-01-09T14:27:00.631Z,3.13
2023-01-09T14:29:36.457Z,3.30
2023-01-09T14:32:29.965Z,3.00
2023-01-09T14:35:14.260Z,3.70
2023-01-09T14:37:41.206Z,3.40
2023-01-09T14:40:16.421Z,3.73
2023-01-09T14:42:44.658Z,3.70
2023-01-09T14:45:16.675Z,3.43
2023-01-09T14:47:46.687Z,3.53
2023-01-09T14:50:28.578Z,2.60
2023-01-09T14:53:18.804Z,2.33
2023-01-09T14:56:06.016Z,1.60
2023-01-09T14:58:35.529Z,1.83
2023-01-09T15:01:16.485Z,1.80
2023-01-09T15:03:52.074Z,1.60
2023-01-09T15:06:21.582Z,1.90
2023-01-09T15:08:56.149Z,1.60
2023-01-09T15:11:23.042Z,1.50
2023-01-09T15:13:51.477Z,1.70
2023-01-09T15:16:24.093Z,1.60
2023-01-09T15:18:53.964Z,2.13
2023-01-09T15:21:25.825Z,1.73
2023-01-09T15:23:52.550Z,2.10
2023-01-09T15:26:26.197Z,2.00
2023-01-09T15:28:54.039Z,1.80
2023-01-09T15:31:23.407Z,1.63
2023-01-09T15:33:53.144Z,2.30
2023-01-09T15:36:25.833Z,3.83
2023-01-09T15:38:53.508Z,2.50
2023-01-09T15:41:44.713Z,2.77
2023-01-09T15:44:28.086Z,2.37
2023-01-09T15:46:59.269Z,2.13
2023-01-09T15:49:26.154Z,2.30
2023-01-09T15:51:53.279Z,2.80
2023-01-09T15:54:31.400Z,2.30
2023-01-09T15:57:33.134Z,3.40
2023-01-09T16:00:34.504Z,3.00
2023-01-09T16:03:12.157Z,3.37
2023-01-09T16:05:44.333Z,3.40
2023-01-09T16:08:35.409Z,3.03
2023-01-09T16:11:04.751Z,3.40
2023-01-09T16:13:34.111Z,2.73
2023-01-09T16:16:02.039Z,2.20
2023-01-09T16:18:31.756Z,2.20
2023-01-09T16:21:21.144Z,2.57
2023-01-09T16:23:58.947Z,2.00
2023-01-09T16:26:27.663Z,2.20
2023-01-09T16:28:55.013Z,2.60
2023-01-09T16:31:29.589Z,5.10
2023-01-09T16:34:04.463Z,3.90
2023-01-09T16:36:31.237Z,2.70
2023-01-09T16:39:00.766Z,5.30
2023-01-09T16:41:46.209Z,4.10
2023-01-09T16:44:13.046Z,2.17
2023-01-09T16:46:43.678Z,2.10
2023-01-09T16:49:22.795Z,2.40
2023-01-09T16:51:50.797Z,2.90
2023-01-09T16:54:17.942Z,2.97
2023-01-09T16:56:50.318Z,3.17
2023-01-09T16:59:24.747Z,3.00
2023-01-09T17:01:53.416Z,3.80
2023-01-09T17:04:20.609Z,3.80
2023-01-09T17:06:50.508Z,3.70
2023-01-09T17:09:19.283Z,4.17
2023-01-09T17:11:48.535Z,4.10
2023-01-09T17:14:15.316Z,4.47
2023-01-09T17:16:45.841Z,4.00
2023-01-09T17:19:17.264Z,4.07
2023-01-09T17:21:43.997Z,4.00
2023-01-09T17:24:29.265Z,4.53
2023-01-09T17:27:14.975Z,4.03
2023-01-09T17:29:41.696Z,3.73
2023-01-09T17:32:13.721Z,5.00
2023-01-09T17:34:40.502Z,9.83
2023-01-09T17:37:07.188Z,7.50
2023-01-09T17:39:33.883Z,4.87
2023-01-09T17:42:01.857Z,4.63
2023-01-09T17:44:28.595Z,4.60
2023-01-09T17:46:55.495Z,5.43
2023-01-09T17:49:22.524Z,5.43
2023-01-09T17:51:49.239Z,5.50
2023-01-09T17:54:16.062Z,6.07
2023-01-09T17:56:45.677Z,6.10
2023-01-09T17:59:13.886Z,6.27
2023-01-09T18:01:41.479Z,6.73
2023-01-09T18:04:08.177Z,6.67
2023-01-09T18:06:36.527Z,6.70
2023-01-09T18:09:04.638Z,7.17
2023-01-09T18:11:31.280Z,7.83
2023-01-09T18:13:58.257Z,8.23
2023-01-09T18:16:27.358Z,7.73
2023-01-09T18:18:57.491Z,8.03
2023-01-09T18:21:25.577Z,7.70
2023-01-09T18:23:52.180Z,9.27
2023-01-09T18:26:20.930Z,9.03
2023-01-09T18:28:54.382Z,10.40
2023-01-09T18:31:24.575Z,10.30
2023-01-09T18:33:52.529Z,9.50
2023-01-09T18:36:24.593Z,8.43
2023-01-09T18:38:53.395Z,8.97
2023-01-09T18:41:21.461Z,9.20
2023-01-09T18:43:56.310Z,9.27
2023-01-09T18:46:25.869Z,9.50
2023-01-09T18:48:58.142Z,11.00
2023-01-09T18:51:26.031Z,9.63
2023-01-09T18:53:52.746Z,9.30
2023-01-09T18:56:20.163Z,9.80
2023-01-09T18:58:49.740Z,9.17
2023-01-09T19:01:17.525Z,9.07
2023-01-09T19:03:45.161Z,8.47
2023-01-09T19:06:11.905Z,9.10
2023-01-09T19:08:38.940Z,9.17
2023-01-09T19:11:05.842Z,9.60
2023-01-09T19:13:34.794Z,8.67
2023-01-09T19:16:01.962Z,9.20
2023-01-09T19:18:31.940Z,9.10
2023-01-09T19:20:58.510Z,7.90
2023-01-09T19:23:25.198Z,8.33
2023-01-09T19:25:53.070Z,8.53
2023-01-09T19:28:20.712Z,8.47
2023-01-09T19:30:47.663Z,7.90
2023-01-09T19:33:14.571Z,7.73
2023-01-09T19:35:41.343Z,7.30
2023-01-09T19:38:08.033Z,8.27
2023-01-09T19:40:35.842Z,8.20
2023-01-09T19:43:02.496Z,7.73
2023-01-09T19:45:29.273Z,7.23
2023-01-09T19:47:56.470Z,7.47
2023-01-09T19:50:23.083Z,7.57
2023-01-09T19:52:50.809Z,8.00
2023-01-09T19:55:17.566Z,7.90
2023-01-09T19:57:45.192Z,8.27
2023-01-09T20:00:13.636Z,9.37
2023-01-09T20:02:41.219Z,8.90
2023-01-09T20:05:09.059Z,12.10
2023-01-09T20:07:35.926Z,10.10
2023-01-09T20:10:02.627Z,10.83
2023-01-09T20:12:29.268Z,12.10
2023-01-09T20:14:56.687Z,11.80
2023-01-09T20:17:23.325Z,11.23
2023-01-09T20:19:49.992Z,10.73
2023-01-09T20:22:16.656Z,11.30
2023-01-09T20:24:43.300Z,11.60
2023-01-09T20:27:10.044Z,11.40
2023-01-09T20:29:36.880Z,11.47
2023-01-09T20:32:06.135Z,12.60
2023-01-09T20:34:35.410Z,10.97
2023-01-09T20:37:02.017Z,10.60
2023-01-09T20:39:28.713Z,11.50
2023-01-09T20:41:55.366Z,13.00
2023-01-09T20:44:22.170Z,11.30
2023-01-09T20:46:48.797Z,11.80
2023-01-09T20:49:18.274Z,11.87
2023-01-09T20:51:54.007Z,10.97
2023-01-09T20:54:21.796Z,12.10
2023-01-09T20:56:48.432Z,11.13
2023-01-09T20:59:17.443Z,12.03
2023-01-09T21:01:44.090Z,10.60
2023-01-09T21:04:10.808Z,11.20
2023-01-09T21:06:37.987Z,12.07
2023-01-09T21:09:05.467Z,12.90
2023-01-09T21:11:32.474Z,13.53
2023-01-09T21:13:59.831Z,12.03
2023-01-09T21:16:26.785Z,11.87
2023-01-09T21:18:53.791Z,11.67
2023-01-09T21:21:23.329Z,11.13
2023-01-09T21:23:52.491Z,11.37
2023-01-09T21:26:22.505Z,11.90
2023-01-09T21:28:50.655Z,11.20
2023-01-09T21:31:20.252Z,12.53
2023-01-09T21:33:49.250Z,11.90
2023-01-09T21:36:17.170Z,12.23
2023-01-09T21:38:43.865Z,11.90
2023-01-09T21:41:29.155Z,11.83
2023-01-09T21:44:14.481Z,11.70
2023-01-09T21:46:53.113Z,12.50
2023-01-09T21:49:20.672Z,12.33
2023-01-09T21:51:47.432Z,12.43
2023-01-09T21:54:14.379Z,12.60
2023-01-09T21:56:41.036Z,11.73
2023-01-09T21:59:07.779Z,11.40
2023-01-09T22:01:34.432Z,11.93
2023-01-09T22:04:01.090Z,11.33
2023-01-09T22:06:28.607Z,13.17
2023-01-09T22:08:55.917Z,12.40
2023-01-09T22:11:23.135Z,11.90
2023-01-09T22:13:50.948Z,12.30
2023-01-09T22:16:18.401Z,13.30
2023-01-09T22:18:45.103Z,13.90
2023-01-09T22:21:11.989Z,12.17
2023-01-09T22:23:38.717Z,12.30
2023-01-09T22:26:13.540Z,13.40
2023-01-09T22:28:41.232Z,12.57
2023-01-09T22:31:12.349Z,12.90
2023-01-09T22:33:39.073Z,12.23
2023-01-09T22:36:11.148Z,13.20
2023-01-09T22:38:38.479Z,13.10
2023-01-09T22:41:05.516Z,11.90
2023-01-09T22:43:32.424Z,12.33
2023-01-09T22:46:01.011Z,11.50
2023-01-09T22:48:32.873Z,11.13
2023-01-09T22:51:00.839Z,11.20
2023-01-09T22:53:28.470Z,12.27
2023-01-09T22:55:59.441Z,11.07
2023-01-09T22:58:27.295Z,11.93
2023-01-09T23:00:54.430Z,11.40
2023-01-09T23:03:21.684Z,11.10
2023-01-09T23:05:48.587Z,11.67
2023-01-09T23:08:15.853Z,11.50
2023-01-09T23:10:42.650Z,11.07
2023-01-09T23:13:09.360Z,11.37
2023-01-09T23:15:35.996Z,12.03
2023-01-09T23:18:02.847Z,12.17
2023-01-09T23:20:29.511Z,11.53
2023-01-09T23:22:58.893Z,12.17
2023-01-09T23:25:25.531Z,11.70
2023-01-09T23:27:52.234Z,12.00
2023-01-09T23:30:18.915Z,13.10
2023-01-09T23:32:45.885Z,12.47
2023-01-09T23:35:12.627Z,12.23
2023-01-09T23:37:39.311Z,11.93
2023-01-09T23:40:06.295Z,12.77
2023-01-09T23:42:51.431Z,12.17
2023-01-09T23:45:18.135Z,12.70
2023-01-09T23:47:44.874Z,12.10
2023-01-09T23:50:11.934Z,11.00
2023-01-09T23:52:38.699Z,12.87
2023-01-09T23:55:05.913Z,13.10
2023-01-09T23:57:32.613Z,12.30
2023-01-09T23:59:59.331Z,12.27
